createdAt,value
2022-11-05T00:01:52.712Z,9.37
2022-11-05T00:04:38.641Z,9.93
2022-11-05T00:07:29.613Z,10.07
2022-11-05T00:10:03.679Z,8.90
2022-11-05T00:12:49.573Z,8.73
2022-11-05T00:15:36.419Z,8.80
2022-11-05T00:18:04.938Z,8.87
2022-11-05T00:20:33.284Z,8.87
2022-11-05T00:23:19.899Z,9.00
2022-11-05T00:25:56.864Z,8.83
2022-11-05T00:28:25.727Z,8.87
2022-11-05T00:30:54.311Z,9.03
2022-11-05T00:33:22.563Z,10.00
2022-11-05T00:35:50.770Z,9.90
2022-11-05T00:38:19.031Z,9.20
2022-11-05T00:40:47.223Z,9.43
2022-11-05T00:43:34.827Z,8.93
2022-11-05T00:46:03.082Z,9.60
2022-11-05T00:48:48.435Z,9.13
2022-11-05T00:51:16.676Z,9.53
2022-11-05T00:53:45.264Z,9.50
2022-11-05T00:56:13.867Z,10.27
2022-11-05T00:58:43.542Z,9.00
2022-11-05T01:01:12.674Z,9.77
2022-11-05T01:03:41.508Z,9.50
2022-11-05T01:06:12.823Z,9.67
2022-11-05T01:08:42.061Z,9.70
2022-11-05T01:11:12.344Z,9.80
2022-11-05T01:13:41.327Z,10.93
2022-11-05T01:16:11.517Z,9.67
2022-11-05T01:18:40.028Z,10.20
2022-11-05T01:21:12.700Z,9.77
2022-11-05T01:23:41.046Z,10.30
2022-11-05T01:26:09.269Z,10.83
2022-11-05T01:28:37.532Z,9.97
2022-11-05T01:31:06.095Z,10.27
2022-11-05T01:33:35.626Z,10.87
2022-11-05T01:36:06.099Z,9.80
2022-11-05T01:38:34.506Z,10.80
2022-11-05T01:41:02.866Z,10.33
2022-11-05T01:43:47.333Z,9.83
2022-11-05T01:46:17.192Z,9.87
2022-11-05T01:48:49.201Z,9.03
2022-11-05T01:51:20.697Z,9.77
2022-11-05T01:53:51.404Z,9.70
2022-11-05T01:56:22.668Z,9.17
2022-11-05T01:58:55.609Z,9.20
2022-11-05T02:01:23.994Z,9.10
2022-11-05T02:03:56.511Z,9.20
2022-11-05T02:06:25.699Z,8.77
2022-11-05T02:08:59.670Z,9.43
2022-11-05T02:11:28.417Z,9.60
2022-11-05T02:13:56.688Z,9.43
2022-11-05T02:16:37.738Z,9.10
2022-11-05T02:19:35.764Z,9.33
2022-11-05T02:22:47.460Z,9.80
2022-11-05T02:25:36.284Z,10.70
2022-11-05T02:28:23.395Z,10.67
2022-11-05T02:30:59.233Z,10.03
2022-11-05T02:33:42.894Z,10.27
2022-11-05T02:36:25.518Z,9.50
2022-11-05T02:39:04.575Z,9.37
2022-11-05T02:41:41.771Z,10.53
2022-11-05T02:44:20.136Z,9.43
2022-11-05T02:47:00.639Z,9.40
2022-11-05T02:49:40.238Z,10.47
2022-11-05T02:52:16.651Z,10.23
2022-11-05T02:54:52.815Z,8.93
2022-11-05T02:57:23.212Z,9.73
2022-11-05T03:00:02.018Z,10.07
2022-11-05T03:02:32.164Z,10.33
2022-11-05T03:05:01.285Z,10.00
2022-11-05T03:07:41.233Z,10.50
2022-11-05T03:10:28.479Z,10.47
2022-11-05T03:13:08.412Z,10.07
2022-11-05T03:15:50.752Z,9.87
2022-11-05T03:18:26.968Z,10.53
2022-11-05T03:21:03.800Z,10.40
2022-11-05T03:23:37.457Z,11.00
2022-11-05T03:26:11.129Z,9.93
2022-11-05T03:28:42.643Z,9.83
2022-11-05T03:31:14.562Z,10.37
2022-11-05T03:33:46.104Z,11.03
2022-11-05T03:36:20.516Z,9.93
2022-11-05T03:38:53.029Z,9.47
2022-11-05T03:41:23.884Z,9.70
2022-11-05T03:43:56.550Z,9.43
2022-11-05T03:46:30.240Z,9.37
2022-11-05T03:49:02.475Z,9.37
2022-11-05T03:51:39.560Z,10.10
2022-11-05T03:54:10.662Z,9.00
2022-11-05T03:56:44.847Z,8.30
2022-11-05T03:59:13.802Z,9.30
2022-11-05T04:01:43.327Z,8.80
2022-11-05T04:04:12.962Z,8.50
2022-11-05T04:06:58.384Z,8.37
2022-11-05T04:09:44.472Z,9.00
2022-11-05T04:12:30.314Z,8.30
2022-11-05T04:14:58.719Z,7.70
2022-11-05T04:17:26.106Z,7.87
2022-11-05T04:20:13.237Z,8.43
2022-11-05T04:22:58.823Z,7.93
2022-11-05T04:25:27.008Z,8.67
2022-11-05T04:28:00.095Z,9.20
2022-11-05T04:30:27.573Z,8.50
2022-11-05T04:33:04.542Z,8.63
2022-11-05T04:35:35.994Z,8.37
2022-11-05T04:38:05.767Z,8.57
2022-11-05T04:40:34.332Z,8.47
2022-11-05T04:43:03.072Z,9.27
2022-11-05T04:45:34.364Z,8.67
2022-11-05T04:48:02.932Z,8.70
2022-11-05T04:50:31.301Z,8.57
2022-11-05T04:53:00.969Z,8.60
2022-11-05T04:55:29.267Z,9.13
2022-11-05T04:57:57.685Z,8.13
2022-11-05T05:00:25.926Z,9.00
2022-11-05T05:02:54.154Z,8.73
2022-11-05T05:05:25.440Z,9.07
2022-11-05T05:07:53.832Z,8.57
2022-11-05T05:10:23.454Z,8.73
2022-11-05T05:12:51.677Z,8.50
2022-11-05T05:15:19.845Z,7.60
2022-11-05T05:17:51.664Z,8.43
2022-11-05T05:20:37.544Z,7.50
2022-11-05T05:23:06.394Z,9.03
2022-11-05T05:25:36.029Z,8.43
2022-11-05T05:28:04.253Z,8.73
2022-11-05T05:30:32.421Z,8.53
2022-11-05T05:33:03.881Z,7.87
2022-11-05T05:35:35.036Z,7.60
2022-11-05T05:38:03.532Z,7.97
2022-11-05T05:40:31.738Z,8.37
2022-11-05T05:43:01.232Z,8.77
2022-11-05T05:45:29.546Z,8.07
2022-11-05T05:47:57.816Z,8.40
2022-11-05T05:50:26.247Z,8.93
2022-11-05T05:52:54.657Z,9.60
2022-11-05T05:55:22.933Z,8.60
2022-11-05T05:57:51.155Z,9.03
2022-11-05T06:00:21.101Z,8.33
2022-11-05T06:02:49.371Z,8.27
2022-11-05T06:05:17.959Z,8.67
2022-11-05T06:07:46.150Z,9.33
2022-11-05T06:10:14.427Z,7.97
2022-11-05T06:12:42.669Z,8.87
2022-11-05T06:15:11.662Z,9.60
2022-11-05T06:17:41.211Z,8.57
2022-11-05T06:20:10.654Z,8.60
2022-11-05T06:22:38.910Z,9.00
2022-11-05T06:25:08.423Z,8.07
2022-11-05T06:27:37.416Z,9.50
2022-11-05T06:30:06.908Z,9.00
2022-11-05T06:32:35.112Z,9.43
2022-11-05T06:35:04.932Z,8.83
2022-11-05T06:37:34.209Z,9.00
2022-11-05T06:40:02.494Z,9.87
2022-11-05T06:42:30.719Z,9.17
2022-11-05T06:44:58.887Z,10.10
2022-11-05T06:47:29.806Z,9.37
2022-11-05T06:49:58.229Z,10.37
2022-11-05T06:52:31.300Z,8.67
2022-11-05T06:55:02.206Z,9.77
2022-11-05T06:57:30.736Z,9.60
2022-11-05T07:00:03.314Z,8.80
2022-11-05T07:02:34.162Z,9.17
2022-11-05T07:05:02.414Z,9.53
2022-11-05T07:07:32.090Z,8.50
2022-11-05T07:10:00.369Z,9.93
2022-11-05T07:12:28.596Z,10.20
2022-11-05T07:14:56.810Z,9.27
2022-11-05T07:17:25.181Z,9.47
2022-11-05T07:19:53.394Z,9.80
2022-11-05T07:22:21.589Z,10.30
2022-11-05T07:24:51.154Z,9.67
2022-11-05T07:27:19.359Z,10.43
2022-11-05T07:29:47.563Z,10.83
2022-11-05T07:32:15.775Z,10.63
2022-11-05T07:34:44.031Z,11.10
2022-11-05T07:37:12.252Z,9.87
2022-11-05T07:39:40.648Z,10.23
2022-11-05T07:42:13.223Z,9.70
2022-11-05T07:44:41.781Z,9.57
2022-11-05T07:47:09.970Z,10.43
2022-11-05T07:49:38.228Z,9.90
2022-11-05T07:52:06.720Z,8.97
2022-11-05T07:54:34.925Z,9.40
2022-11-05T07:57:03.290Z,9.43
2022-11-05T07:59:32.884Z,10.70
2022-11-05T08:02:01.297Z,10.27
2022-11-05T08:04:29.729Z,10.20
2022-11-05T08:06:58.090Z,10.33
2022-11-05T08:09:26.363Z,9.97
2022-11-05T08:11:57.423Z,11.63
2022-11-05T08:14:29.769Z,11.37
2022-11-05T08:16:59.966Z,10.43
2022-11-05T08:19:28.137Z,10.73
2022-11-05T08:21:56.323Z,10.83
2022-11-05T08:24:24.503Z,11.13
2022-11-05T08:26:54.163Z,10.23
2022-11-05T08:29:22.440Z,10.87
2022-11-05T08:31:50.661Z,10.43
2022-11-05T08:34:20.291Z,10.10
2022-11-05T08:36:48.494Z,10.37
2022-11-05T08:39:18.753Z,10.57
2022-11-05T08:41:47.174Z,11.43
2022-11-05T08:44:15.412Z,10.70
2022-11-05T08:46:43.908Z,11.47
2022-11-05T08:49:12.232Z,10.47
2022-11-05T08:51:41.840Z,10.53
2022-11-05T08:54:10.174Z,10.67
2022-11-05T08:56:38.400Z,10.40
2022-11-05T08:59:07.193Z,10.63
2022-11-05T09:01:35.913Z,10.07
2022-11-05T09:04:04.502Z,10.40
2022-11-05T09:06:32.827Z,9.33
2022-11-05T09:09:02.602Z,10.23
2022-11-05T09:11:57.104Z,9.30
2022-11-05T09:14:19.101Z,9.87
2022-11-05T09:16:47.328Z,8.80
2022-11-05T09:19:15.511Z,8.50
2022-11-05T09:21:43.928Z,8.43
2022-11-05T09:24:13.561Z,10.10
2022-11-05T09:26:41.810Z,8.67
2022-11-05T09:29:14.192Z,8.83
2022-11-05T09:31:42.953Z,7.87
2022-11-05T09:34:11.244Z,8.60
2022-11-05T09:36:39.619Z,9.03
2022-11-05T09:39:07.938Z,8.40
2022-11-05T09:41:39.649Z,8.40
2022-11-05T09:44:14.680Z,7.83
2022-11-05T09:46:47.791Z,8.33
2022-11-05T09:49:27.029Z,9.07
2022-11-05T09:51:57.888Z,9.07
2022-11-05T09:54:29.389Z,10.73
2022-11-05T09:57:00.575Z,9.67
2022-11-05T09:59:32.614Z,9.63
2022-11-05T10:02:05.079Z,8.93
2022-11-05T10:04:35.348Z,9.87
2022-11-05T10:07:06.481Z,9.60
2022-11-05T10:09:40.037Z,9.17
2022-11-05T10:12:16.118Z,8.23
2022-11-05T10:14:48.047Z,8.87
2022-11-05T10:17:22.385Z,8.40
2022-11-05T10:19:53.076Z,8.27
2022-11-05T10:22:21.780Z,7.67
2022-11-05T10:24:51.907Z,7.17
2022-11-05T10:27:25.084Z,7.27
2022-11-05T10:29:54.040Z,6.23
2022-11-05T10:32:29.296Z,5.97
2022-11-05T10:34:59.983Z,5.83
2022-11-05T10:37:29.731Z,5.87
2022-11-05T10:39:58.375Z,5.03
2022-11-05T10:42:43.305Z,5.53
2022-11-05T10:45:23.816Z,5.30
2022-11-05T10:48:14.206Z,5.17
2022-11-05T10:50:44.750Z,5.20
2022-11-05T10:53:16.169Z,4.50
2022-11-05T10:55:47.290Z,4.97
2022-11-05T10:58:22.897Z,4.60
2022-11-05T11:01:05.298Z,4.23
2022-11-05T11:03:38.670Z,4.27
2022-11-05T11:06:15.081Z,4.53
2022-11-05T11:08:47.225Z,4.63
2022-11-05T11:11:30.720Z,4.93
2022-11-05T11:14:07.707Z,4.17
2022-11-05T11:16:39.269Z,3.63
2022-11-05T11:19:26.606Z,4.77
2022-11-05T11:22:22.853Z,4.40
2022-11-05T11:24:54.027Z,3.83
2022-11-05T11:27:27.963Z,4.33
2022-11-05T11:30:01.685Z,4.47
2022-11-05T11:32:36.530Z,4.70
2022-11-05T11:35:06.654Z,4.00
2022-11-05T11:37:41.931Z,3.70
2022-11-05T11:40:17.234Z,3.70
2022-11-05T11:42:48.563Z,4.27
2022-11-05T11:45:22.019Z,4.07
2022-11-05T11:47:51.233Z,3.50
2022-11-05T11:50:35.591Z,3.93
2022-11-05T11:53:30.269Z,4.37
2022-11-05T11:56:01.602Z,4.27
2022-11-05T11:58:41.934Z,4.00
2022-11-05T12:01:28.370Z,4.37
2022-11-05T12:04:02.388Z,4.23
2022-11-05T12:06:37.333Z,4.07
2022-11-05T12:09:13.908Z,4.30
2022-11-05T12:11:50.242Z,4.70
2022-11-05T12:14:28.423Z,4.03
2022-11-05T12:17:12.069Z,4.57
2022-11-05T12:20:08.944Z,4.37
2022-11-05T12:22:52.799Z,4.63
2022-11-05T12:25:26.093Z,4.67
2022-11-05T12:28:11.534Z,4.37
2022-11-05T12:30:52.419Z,5.00
2022-11-05T12:33:28.711Z,4.57
2022-11-05T12:36:07.708Z,5.07
2022-11-05T12:38:53.831Z,4.80
2022-11-05T12:41:27.647Z,4.57
2022-11-05T12:44:15.460Z,4.80
2022-11-05T12:46:51.599Z,4.37
2022-11-05T12:49:46.749Z,4.33
2022-11-05T12:52:29.275Z,4.53
2022-11-05T12:55:05.008Z,5.20
2022-11-05T12:57:37.318Z,5.60
2022-11-05T13:00:09.158Z,5.17
2022-11-05T13:02:44.247Z,5.10
2022-11-05T13:05:18.211Z,5.00
2022-11-05T13:07:54.166Z,4.67
2022-11-05T13:10:31.977Z,4.80
2022-11-05T13:13:06.401Z,5.20
2022-11-05T13:15:38.795Z,4.90
2022-11-05T13:18:12.651Z,4.80
2022-11-05T13:20:47.519Z,5.50
2022-11-05T13:23:24.176Z,4.37
2022-11-05T13:26:06.853Z,5.23
2022-11-05T13:28:42.446Z,9.80
2022-11-05T13:31:13.570Z,5.00
2022-11-05T13:33:45.035Z,5.67
2022-11-05T13:36:38.195Z,4.60
2022-11-05T13:39:15.432Z,4.80
2022-11-05T13:42:07.125Z,4.80
2022-11-05T13:45:08.334Z,5.13
2022-11-05T13:48:05.662Z,5.20
2022-11-05T13:51:04.265Z,4.70
2022-11-05T13:54:02.150Z,4.53
2022-11-05T13:56:49.696Z,5.00
2022-11-05T13:59:44.313Z,5.27
2022-11-05T14:02:18.568Z,5.00
2022-11-05T14:04:50.328Z,5.00
2022-11-05T14:07:22.237Z,4.97
2022-11-05T14:09:57.205Z,5.03
2022-11-05T14:12:31.166Z,4.50
2022-11-05T14:15:05.285Z,5.47
2022-11-05T14:17:36.548Z,4.80
2022-11-05T14:20:23.512Z,4.97
2022-11-05T14:22:52.339Z,4.50
2022-11-05T14:25:55.950Z,4.53
2022-11-05T14:29:05.344Z,4.30
2022-11-05T14:34:48.334Z,4.60
2022-11-05T14:37:31.324Z,4.90
2022-11-05T14:40:18.732Z,4.70
2022-11-05T14:42:51.960Z,4.37
2022-11-05T14:45:28.679Z,4.87
2022-11-05T14:48:00.196Z,4.40
2022-11-05T14:50:36.936Z,5.27
2022-11-05T14:53:26.190Z,4.80
2022-11-05T14:56:02.162Z,5.10
2022-11-05T14:58:35.420Z,4.67
2022-11-05T15:01:05.961Z,4.57
2022-11-05T15:03:59.863Z,4.87
2022-11-05T15:06:31.452Z,4.50
2022-11-05T15:09:12.651Z,4.73
2022-11-05T15:11:44.709Z,6.17
2022-11-05T15:14:21.876Z,7.80
2022-11-05T15:16:53.450Z,7.33
2022-11-05T15:19:25.621Z,12.00
2022-11-05T15:21:57.769Z,13.60
2022-11-05T15:24:28.840Z,13.13
2022-11-05T15:27:15.071Z,9.03
2022-11-05T15:29:44.869Z,9.07
2022-11-05T15:32:18.619Z,9.77
2022-11-05T15:34:53.456Z,6.60
2022-11-05T15:37:24.857Z,8.03
2022-11-05T15:39:54.782Z,9.30
2022-11-05T15:42:24.760Z,8.10
2022-11-05T15:44:56.247Z,5.87
2022-11-05T15:47:28.210Z,8.10
2022-11-05T15:49:59.846Z,8.27
2022-11-05T15:52:36.300Z,19.80
2022-11-05T15:55:22.207Z,10.83
2022-11-05T15:57:52.705Z,11.57
2022-11-05T16:00:27.283Z,7.47
2022-11-05T16:02:57.422Z,9.13
2022-11-05T16:05:27.920Z,9.77
2022-11-05T16:07:59.169Z,9.00
2022-11-05T16:10:31.211Z,11.97
2022-11-05T16:13:19.864Z,14.90
2022-11-05T16:15:56.078Z,8.07
2022-11-05T16:18:30.953Z,7.77
2022-11-05T16:21:08.054Z,11.53
2022-11-05T16:23:45.120Z,7.67
2022-11-05T16:29:32.245Z,7.87
2022-11-05T16:32:03.974Z,6.20
2022-11-05T16:34:36.675Z,5.60
2022-11-05T16:37:07.389Z,6.50
2022-11-05T16:39:35.950Z,7.60
2022-11-05T16:42:37.110Z,7.47
2022-11-05T16:45:06.250Z,6.80
2022-11-05T16:47:35.845Z,5.37
2022-11-05T16:50:14.696Z,6.20
2022-11-05T16:52:42.967Z,6.37
2022-11-05T16:55:12.312Z,5.30
2022-11-05T16:57:40.905Z,5.70
2022-11-05T17:00:14.454Z,8.20
2022-11-05T17:02:44.461Z,6.07
2022-11-05T17:05:21.954Z,6.23
2022-11-05T17:07:50.350Z,8.23
2022-11-05T17:10:18.894Z,6.03
2022-11-05T17:12:47.687Z,6.47
2022-11-05T17:15:21.157Z,6.80
2022-11-05T17:17:51.187Z,6.13
2022-11-05T17:20:39.763Z,5.63
2022-11-05T17:23:12.210Z,6.10
2022-11-05T17:25:41.297Z,7.67
2022-11-05T17:28:11.293Z,5.90
2022-11-05T17:30:42.105Z,5.80
2022-11-05T17:33:12.824Z,5.43
2022-11-05T17:35:41.558Z,6.97
2022-11-05T17:38:09.819Z,7.50
2022-11-05T17:40:38.987Z,5.33
2022-11-05T17:43:07.393Z,4.63
2022-11-05T17:45:35.688Z,4.50
2022-11-05T17:48:05.045Z,6.10
2022-11-05T17:50:34.750Z,5.10
2022-11-05T17:53:03.012Z,4.77
2022-11-05T17:55:31.219Z,4.57
2022-11-05T17:57:59.540Z,4.63
2022-11-05T18:00:28.601Z,6.10
2022-11-05T18:02:57.064Z,5.10
2022-11-05T18:05:27.860Z,5.13
2022-11-05T18:07:58.427Z,4.60
2022-11-05T18:10:27.364Z,4.33
2022-11-05T18:12:55.773Z,4.77
2022-11-05T18:15:24.530Z,5.73
2022-11-05T18:17:52.724Z,4.27
2022-11-05T18:20:21.123Z,5.73
2022-11-05T18:22:51.245Z,4.70
2022-11-05T18:25:20.988Z,5.20
2022-11-05T18:27:49.177Z,4.50
2022-11-05T18:30:17.430Z,4.50
2022-11-05T18:32:46.183Z,4.93
2022-11-05T18:35:14.680Z,4.20
2022-11-05T18:37:43.424Z,4.37
2022-11-05T18:40:14.861Z,4.83
2022-11-05T18:42:47.051Z,6.37
2022-11-05T18:45:15.548Z,4.77
2022-11-05T18:47:43.845Z,6.07
2022-11-05T18:50:12.078Z,4.80
2022-11-05T18:52:40.390Z,6.77
2022-11-05T18:55:09.734Z,5.93
2022-11-05T18:57:38.088Z,5.77
2022-11-05T19:00:09.277Z,5.63
2022-11-05T19:02:37.798Z,5.90
2022-11-05T19:05:28.141Z,5.20
2022-11-05T19:07:55.036Z,4.93
2022-11-05T19:10:23.334Z,4.83
2022-11-05T19:12:51.578Z,6.07
2022-11-05T19:15:21.172Z,5.60
2022-11-05T19:17:49.369Z,4.77
2022-11-05T19:20:17.704Z,5.47
2022-11-05T19:22:45.939Z,5.27
2022-11-05T19:25:14.165Z,5.90
2022-11-05T19:27:43.674Z,5.07
2022-11-05T19:30:14.959Z,5.03
2022-11-05T19:32:44.502Z,5.80
2022-11-05T19:35:12.797Z,7.97
2022-11-05T19:37:41.128Z,5.67
2022-11-05T19:40:11.159Z,7.00
2022-11-05T19:42:39.412Z,4.40
2022-11-05T19:45:38.282Z,4.40
2022-11-05T19:47:58.291Z,5.83
2022-11-05T19:50:26.812Z,7.00
2022-11-05T19:52:55.122Z,5.30
2022-11-05T19:55:23.423Z,6.13
2022-11-05T19:57:51.748Z,7.90
2022-11-05T20:00:20.269Z,7.23
2022-11-05T20:02:48.583Z,8.27
2022-11-05T20:05:18.435Z,5.03
2022-11-05T20:07:51.409Z,5.10
2022-11-05T20:10:21.305Z,6.87
2022-11-05T20:12:49.671Z,6.83
2022-11-05T20:15:19.607Z,4.80
2022-11-05T20:17:52.279Z,7.40
2022-11-05T20:20:22.064Z,5.43
2022-11-05T20:22:52.848Z,8.20
2022-11-05T20:25:21.143Z,6.63
2022-11-05T20:27:49.636Z,7.33
2022-11-05T20:30:18.632Z,7.77
2022-11-05T20:32:47.150Z,6.53
2022-11-05T20:35:15.517Z,7.60
2022-11-05T20:37:48.501Z,8.20
2022-11-05T20:40:23.307Z,6.23
2022-11-05T20:42:51.769Z,5.80
2022-11-05T20:45:19.997Z,6.13
2022-11-05T20:47:48.218Z,7.03
2022-11-05T20:50:16.777Z,8.43
2022-11-05T20:52:46.428Z,5.87
2022-11-05T20:55:14.973Z,5.30
2022-11-05T20:57:43.361Z,5.70
2022-11-05T21:00:13.105Z,5.93
2022-11-05T21:02:41.958Z,5.63
2022-11-05T21:05:10.638Z,5.23
2022-11-05T21:07:39.070Z,5.30
2022-11-05T21:10:09.354Z,4.77
2022-11-05T21:12:37.674Z,6.13
2022-11-05T21:15:06.838Z,6.30
2022-11-05T21:17:35.109Z,5.03
2022-11-05T21:20:03.398Z,5.67
2022-11-05T21:22:31.902Z,6.47
2022-11-05T21:25:00.143Z,4.80
2022-11-05T21:27:29.775Z,5.83
2022-11-05T21:29:57.950Z,6.80
2022-11-05T21:32:26.146Z,5.67
2022-11-05T21:34:54.348Z,5.07
2022-11-05T21:37:22.591Z,7.83
2022-11-05T21:39:50.837Z,5.77
2022-11-05T21:42:19.218Z,6.17
2022-11-05T21:44:48.824Z,6.20
2022-11-05T21:47:17.083Z,5.57
2022-11-05T21:49:45.350Z,6.93
2022-11-05T21:52:31.450Z,6.33
2022-11-05T21:55:16.959Z,5.83
2022-11-05T21:58:02.486Z,6.70
2022-11-05T22:00:32.067Z,6.23
2022-11-05T22:03:00.586Z,6.80
2022-11-05T22:05:29.160Z,5.93
2022-11-05T22:07:57.380Z,5.93
2022-11-05T22:10:25.812Z,6.93
2022-11-05T22:12:54.035Z,5.17
2022-11-05T22:15:22.434Z,6.03
2022-11-05T22:17:52.405Z,5.30
2022-11-05T22:20:20.600Z,4.87
2022-11-05T22:22:48.813Z,4.80
2022-11-05T22:25:17.378Z,5.10
2022-11-05T22:27:45.776Z,4.20
2022-11-05T22:30:15.445Z,4.30
2022-11-05T22:32:43.738Z,5.67
2022-11-05T22:35:13.580Z,4.40
2022-11-05T22:37:41.871Z,4.37
2022-11-05T22:40:10.793Z,4.10
2022-11-05T22:42:39.199Z,6.90
2022-11-05T22:45:08.248Z,5.00
2022-11-05T22:47:37.003Z,4.53
2022-11-05T22:50:06.512Z,4.47
2022-11-05T22:52:36.180Z,5.13
2022-11-05T22:55:06.274Z,3.87
2022-11-05T22:57:34.678Z,4.47
2022-11-05T23:00:03.152Z,4.00
2022-11-05T23:02:31.968Z,4.40
2022-11-05T23:05:02.922Z,4.50
2022-11-05T23:07:48.416Z,4.70
2022-11-05T23:10:35.641Z,4.90
2022-11-05T23:13:04.343Z,4.10
2022-11-05T23:15:50.199Z,3.83
2022-11-05T23:18:50.864Z,3.73
2022-11-05T23:21:36.498Z,4.60
2022-11-05T23:24:05.225Z,4.10
2022-11-05T23:26:51.959Z,5.03
2022-11-05T23:29:22.569Z,5.33
2022-11-05T23:32:10.309Z,3.50
2022-11-05T23:34:38.975Z,4.10
2022-11-05T23:37:25.163Z,4.47
2022-11-05T23:39:53.455Z,4.70
2022-11-05T23:42:40.661Z,4.60
2022-11-05T23:45:27.244Z,3.83
2022-11-05T23:48:13.218Z,4.63
2022-11-05T23:50:42.490Z,4.13
2022-11-05T23:53:10.873Z,3.37
2022-11-05T23:55:39.597Z,4.47
2022-11-05T23:58:09.684Z,3.10
